Piarco FIR Weather

TAPA 120100Z 05012KT 9999 -SHRA BKN018 28/25 Q1014 NOSIG

TBPB 120100Z 09011KT 9999 -SHRA BKN014 28/25 Q1012 NOSIG

TDPD 112200Z 09005KT 9000 BKN014 BKN032 28/26 Q1013

TFFF 120130Z AUTO 08004KT 9999 BKN020 BKN031 28/26 Q1013 TEMPO 4000 SHRA SCT010CB SCT018TCU

TFFR 120130Z AUTO 06009KT 6000 BKN018/// BKN023/// OVC031/// ///TCU 27/25 Q1014 TEMPO SHRA SCT010CB SCT018TCU

TGPY 120100Z 07008KT 9999 FEW018 28/25 Q1012 NOSIG

TKPK 112200Z 07011KT 9999 FEW016 28/26 Q1013

TKPN 112100Z 09013KT 9999 FEW017TCU 30/26 Q1013

TLPC 120000Z 08007KT 9999 SCT021 29/25 Q1013 NOSIG

TLPL 120100Z 07013KT 9999 FEW025 29/25 Q1013 NOSIG

TTCP 120100Z 07003KT 9999 FEW016 27/23 Q1011 NOSIG

TTPP 120100Z 08004KT 9000 VCSH FEW018 27/25 Q1012 NOSIG RMK JP...ESE SW NNW

TVSV 132043Z 12005G18KT 4000 SHRA BKN014 27/23 Q1010